Terminal Aerodrome Forecast
Issued by NWS

Home | Current Version | Previous Version | Graphics & Text | Print | Product List | Glossary On
Versions: 1 2 3 4 5 6 7 8 9 10 11 12 13 14 15
000
FTUS43 KICT 202300
TAFSLN
TAF
KSLN 202321Z 2100/2124 17012KT P6SM BKN100
     FM210800 20010KT P6SM OVC008
     FM211400 35012KT P6SM VCSH SCT025 BKN060=

USA.gov is the U.S. government's official web portal to all federal, state and local government web resources and services.